sensor_id;sensor_type;location;lat;lon;timestamp;pressure;altitude;pressure_sealevel;temperature;humidity
5651;BME280;40241;52.684;9.758;2023-04-06T00:00:13;101739.91;;;3.49;44.98
5651;BME280;40241;52.684;9.758;2023-04-06T00:02:39;101738.34;;;3.48;45.18
5651;BME280;40241;52.684;9.758;2023-04-06T00:05:05;101736.47;;;3.45;45.14
5651;BME280;40241;52.684;9.758;2023-04-06T00:07:31;101739.59;;;3.43;45.08
5651;BME280;40241;52.684;9.758;2023-04-06T00:09:58;101735.34;;;3.42;45.24
5651;BME280;40241;52.684;9.758;2023-04-06T00:12:24;101737.03;;;3.36;45.16
5651;BME280;40241;52.684;9.758;2023-04-06T00:14:49;101730.94;;;3.29;45.23
5651;BME280;40241;52.684;9.758;2023-04-06T00:17:15;101732.59;;;3.23;45.34
5651;BME280;40241;52.684;9.758;2023-04-06T00:19:40;101734.63;;;3.19;45.37
5651;BME280;40241;52.684;9.758;2023-04-06T00:22:06;101739.69;;;3.17;45.66
5651;BME280;40241;52.684;9.758;2023-04-06T00:24:31;101728.44;;;3.15;45.46
5651;BME280;40241;52.684;9.758;2023-04-06T00:26:57;101727.34;;;3.12;45.66
5651;BME280;40241;52.684;9.758;2023-04-06T00:29:22;101728.59;;;3.08;45.37
5651;BME280;40241;52.684;9.758;2023-04-06T00:31:48;101723.19;;;3.04;45.53
5651;BME280;40241;52.684;9.758;2023-04-06T00:34:13;101729.06;;;3.02;45.84
5651;BME280;40241;52.684;9.758;2023-04-06T00:36:40;101732.94;;;3.01;45.75
5651;BME280;40241;52.684;9.758;2023-04-06T00:39:06;101723.69;;;2.99;45.69
5651;BME280;40241;52.684;9.758;2023-04-06T00:41:31;101723.69;;;2.99;45.78
5651;BME280;40241;52.684;9.758;2023-04-06T00:43:57;101745.13;;;2.93;46.02
5651;BME280;40241;52.684;9.758;2023-04-06T00:46:22;101729.22;;;2.92;46.18
5651;BME280;40241;52.684;9.758;2023-04-06T00:48:48;101720.03;;;2.86;46.11
5651;BME280;40241;52.684;9.758;2023-04-06T00:51:13;101716.16;;;2.83;46.22
5651;BME280;40241;52.684;9.758;2023-04-06T00:53:38;101727.41;;;2.85;46.19
5651;BME280;40241;52.684;9.758;2023-04-06T00:56:04;101708.41;;;2.82;46.08
5651;BME280;40241;52.684;9.758;2023-04-06T00:58:30;101711.19;;;2.78;46.16
5651;BME280;40241;52.684;9.758;2023-04-06T01:00:55;101715.13;;;2.77;46.11
5651;BME280;40241;52.684;9.758;2023-04-06T01:03:21;101704.63;;;2.76;46.42
5651;BME280;40241;52.684;9.758;2023-04-06T01:05:46;101713.22;;;2.74;46.32
5651;BME280;40241;52.684;9.758;2023-04-06T01:08:13;101698.91;;;2.70;46.26
5651;BME280;40241;52.684;9.758;2023-04-06T01:10:38;101697.78;;;2.68;46.61
5651;BME280;40241;52.684;9.758;2023-04-06T01:13:04;101692.78;;;2.66;46.48
5651;BME280;40241;52.684;9.758;2023-04-06T01:15:29;101701.75;;;2.63;46.36
5651;BME280;40241;52.684;9.758;2023-04-06T01:17:55;101697.13;;;2.60;46.57
5651;BME280;40241;52.684;9.758;2023-04-06T01:20:20;101691.41;;;2.55;46.49
5651;BME280;40241;52.684;9.758;2023-04-06T01:22:46;101687.13;;;2.54;46.72
5651;BME280;40241;52.684;9.758;2023-04-06T01:25:11;101688.34;;;2.49;46.93
5651;BME280;40241;52.684;9.758;2023-04-06T01:27:37;101686.84;;;2.48;46.88
5651;BME280;40241;52.684;9.758;2023-04-06T01:30:02;101686.47;;;2.46;46.95
5651;BME280;40241;52.684;9.758;2023-04-06T01:32:28;101689.19;;;2.46;46.66
5651;BME280;40241;52.684;9.758;2023-04-06T01:34:53;101681.88;;;2.43;46.96
5651;BME280;40241;52.684;9.758;2023-04-06T01:37:20;101683.06;;;2.42;46.99
5651;BME280;40241;52.684;9.758;2023-04-06T01:39:45;101686.16;;;2.41;47.01
5651;BME280;40241;52.684;9.758;2023-04-06T01:42:11;101688.50;;;2.42;46.93
5651;BME280;40241;52.684;9.758;2023-04-06T01:44:36;101702.59;;;2.34;46.91
5651;BME280;40241;52.684;9.758;2023-04-06T01:47:02;101685.03;;;2.38;46.83
5651;BME280;40241;52.684;9.758;2023-04-06T01:49:27;101687.41;;;2.36;47.27
5651;BME280;40241;52.684;9.758;2023-04-06T01:51:53;101685.88;;;2.35;47.27
5651;BME280;40241;52.684;9.758;2023-04-06T01:54:19;101684.38;;;2.31;47.02
5651;BME280;40241;52.684;9.758;2023-04-06T01:56:45;101684.44;;;2.27;47.51
5651;BME280;40241;52.684;9.758;2023-04-06T01:59:10;101682.91;;;2.26;47.33
5651;BME280;40241;52.684;9.758;2023-04-06T02:01:36;101682.53;;;2.24;47.62
5651;BME280;40241;52.684;9.758;2023-04-06T02:04:01;101679.06;;;2.23;47.08
5651;BME280;40241;52.684;9.758;2023-04-06T02:06:27;101682.59;;;2.20;47.22
5651;BME280;40241;52.684;9.758;2023-04-06T02:08:52;101676.03;;;2.18;47.22
5651;BME280;40241;52.684;9.758;2023-04-06T02:11:18;101678.03;;;2.14;47.31
5651;BME280;40241;52.684;9.758;2023-04-06T02:13:43;101668.06;;;2.07;47.66
5651;BME280;40241;52.684;9.758;2023-04-06T02:16:09;101668.09;;;2.04;47.35
5651;BME280;40241;52.684;9.758;2023-04-06T02:18:34;101677.41;;;2.03;47.50
5651;BME280;40241;52.684;9.758;2023-04-06T02:21:00;101668.91;;;2.01;47.56
5651;BME280;40241;52.684;9.758;2023-04-06T02:23:25;101668.16;;;2.00;47.56
5651;BME280;40241;52.684;9.758;2023-04-06T02:25:51;101675.50;;;2.00;47.56
5651;BME280;40241;52.684;9.758;2023-04-06T02:28:17;101662.28;;;2.02;47.79
5651;BME280;40241;52.684;9.758;2023-04-06T02:30:42;101671.22;;;2.02;47.74
5651;BME280;40241;52.684;9.758;2023-04-06T02:33:08;101666.22;;;2.01;47.64
5651;BME280;40241;52.684;9.758;2023-04-06T02:35:33;101660.81;;;1.97;47.85
5651;BME280;40241;52.684;9.758;2023-04-06T02:37:58;101682.94;;;1.96;47.65
5651;BME280;40241;52.684;9.758;2023-04-06T02:40:24;101663.56;;;1.94;48.04
5651;BME280;40241;52.684;9.758;2023-04-06T02:42:49;101650.81;;;1.91;47.75
5651;BME280;40241;52.684;9.758;2023-04-06T02:45:15;101661.66;;;1.91;48.23
5651;BME280;40241;52.684;9.758;2023-04-06T02:47:41;101655.53;;;1.87;47.99
5651;BME280;40241;52.684;9.758;2023-04-06T02:50:07;101662.50;;;1.88;48.14
5651;BME280;40241;52.684;9.758;2023-04-06T02:52:32;101667.94;;;1.88;47.97
5651;BME280;40241;52.684;9.758;2023-04-06T02:54:58;101659.78;;;1.88;48.25
5651;BME280;40241;52.684;9.758;2023-04-06T02:57:23;101660.53;;;1.88;48.23
5651;BME280;40241;52.684;9.758;2023-04-06T02:59:48;101660.91;;;1.90;47.93
5651;BME280;40241;52.684;9.758;2023-04-06T03:02:14;101664.38;;;1.91;48.34
5651;BME280;40241;52.684;9.758;2023-04-06T03:04:39;101652.38;;;1.92;48.12
5651;BME280;40241;52.684;9.758;2023-04-06T03:07:04;101654.31;;;1.91;47.99
5651;BME280;40241;52.684;9.758;2023-04-06T03:09:30;101653.97;;;1.86;48.07
5651;BME280;40241;52.684;9.758;2023-04-06T03:11:55;101655.59;;;1.83;48.22
5651;BME280;40241;52.684;9.758;2023-04-06T03:14:21;101652.88;;;1.83;48.21
5651;BME280;40241;52.684;9.758;2023-04-06T03:16:48;101652.09;;;1.83;48.17
5651;BME280;40241;52.684;9.758;2023-04-06T03:19:13;101645.13;;;1.82;48.17
5651;BME280;40241;52.684;9.758;2023-04-06T03:21:39;101639.31;;;1.83;48.30
5651;BME280;40241;52.684;9.758;2023-04-06T03:24:05;101651.69;;;1.84;48.33
5651;BME280;40241;52.684;9.758;2023-04-06T03:26:30;101650.91;;;1.84;48.21
5651;BME280;40241;52.684;9.758;2023-04-06T03:28:56;101650.19;;;1.80;48.38
5651;BME280;40241;52.684;9.758;2023-04-06T03:31:21;101651.38;;;1.79;48.60
5651;BME280;40241;52.684;9.758;2023-04-06T03:33:46;101652.53;;;1.78;48.29
5651;BME280;40241;52.684;9.758;2023-04-06T03:36:12;101650.19;;;1.80;48.63
5651;BME280;40241;52.684;9.758;2023-04-06T03:38:37;101641.69;;;1.78;48.29
5651;BME280;40241;52.684;9.758;2023-04-06T03:41:02;101649.47;;;1.76;48.78
5651;BME280;40241;52.684;9.758;2023-04-06T03:43:28;101655.34;;;1.71;48.56
5651;BME280;40241;52.684;9.758;2023-04-06T03:45:53;101648.34;;;1.73;48.51
5651;BME280;40241;52.684;9.758;2023-04-06T03:48:18;101652.63;;;1.71;48.67
5651;BME280;40241;52.684;9.758;2023-04-06T03:50:44;101659.59;;;1.72;48.68
5651;BME280;40241;52.684;9.758;2023-04-06T03:53:09;101651.09;;;1.70;48.69
5651;BME280;40241;52.684;9.758;2023-04-06T03:55:35;101654.22;;;1.68;48.68
5651;BME280;40241;52.684;9.758;2023-04-06T03:58:00;101648.03;;;1.68;48.89
5651;BME280;40241;52.684;9.758;2023-04-06T04:00:26;101647.66;;;1.66;48.87
5651;BME280;40241;52.684;9.758;2023-04-06T04:02:52;101656.16;;;1.68;48.68
5651;BME280;40241;52.684;9.758;2023-04-06T04:05:17;101648.03;;;1.68;49.06
5651;BME280;40241;52.684;9.758;2023-04-06T04:07:42;101655.81;;;1.66;49.25
5651;BME280;40241;52.684;9.758;2023-04-06T04:10:08;101655.44;;;1.64;49.16
5651;BME280;40241;52.684;9.758;2023-04-06T04:12:34;101648.47;;;1.63;48.93
5651;BME280;40241;52.684;9.758;2023-04-06T04:14:59;101653.53;;;1.61;49.07
5651;BME280;40241;52.684;9.758;2023-04-06T04:17:24;101660.50;;;1.62;49.31
5651;BME280;40241;52.684;9.758;2023-04-06T04:19:50;101654.25;;;1.65;49.36
5651;BME280;40241;52.684;9.758;2023-04-06T04:22:15;101660.03;;;1.67;49.13
5651;BME280;40241;52.684;9.758;2023-04-06T04:24:41;101656.59;;;1.63;49.18
5651;BME280;40241;52.684;9.758;2023-04-06T04:27:06;101652.69;;;1.67;49.36
5651;BME280;40241;52.684;9.758;2023-04-06T04:29:31;101656.97;;;1.65;49.16
5651;BME280;40241;52.684;9.758;2023-04-06T04:31:57;101648.13;;;1.61;49.26
5651;BME280;40241;52.684;9.758;2023-04-06T04:34:22;101646.97;;;1.58;49.60
5651;BME280;40241;52.684;9.758;2023-04-06T04:36:52;101649.31;;;1.56;49.20
5651;BME280;40241;52.684;9.758;2023-04-06T04:39:17;101648.91;;;1.58;49.59
5651;BME280;40241;52.684;9.758;2023-04-06T04:41:42;101650.47;;;1.59;49.54
5651;BME280;40241;52.684;9.758;2023-04-06T04:44:08;101646.56;;;1.60;49.36
5651;BME280;40241;52.684;9.758;2023-04-06T04:46:33;101647.34;;;1.60;49.54
5651;BME280;40241;52.684;9.758;2023-04-06T04:48:59;101657.41;;;1.60;49.70
5651;BME280;40241;52.684;9.758;2023-04-06T04:51:24;101654.69;;;1.63;49.56
5651;BME280;40241;52.684;9.758;2023-04-06T04:53:50;101650.47;;;1.59;49.61
5651;BME280;40241;52.684;9.758;2023-04-06T04:56:15;101658.19;;;1.60;49.38
5651;BME280;40241;52.684;9.758;2023-04-06T04:58:41;101662.44;;;1.61;49.35
5651;BME280;40241;52.684;9.758;2023-04-06T05:01:08;101651.25;;;1.59;49.52
5651;BME280;40241;52.684;9.758;2023-04-06T05:03:33;101662.47;;;1.58;49.62
5651;BME280;40241;52.684;9.758;2023-04-06T05:05:58;101647.41;;;1.57;49.90
5651;BME280;40241;52.684;9.758;2023-04-06T05:08:24;101648.88;;;1.61;49.78
5651;BME280;40241;52.684;9.758;2023-04-06T05:10:50;101669.41;;;1.62;49.81
5651;BME280;40241;52.684;9.758;2023-04-06T05:13:15;101653.91;;;1.63;49.59
5651;BME280;40241;52.684;9.758;2023-04-06T05:15:41;101647.69;;;1.62;49.71
5651;BME280;40241;52.684;9.758;2023-04-06T05:18:07;101648.13;;;1.61;49.56
5651;BME280;40241;52.684;9.758;2023-04-06T05:20:33;101648.88;;;1.61;49.83
5651;BME280;40241;52.684;9.758;2023-04-06T05:22:59;101653.47;;;1.64;49.76
5651;BME280;40241;52.684;9.758;2023-04-06T05:25:25;101653.03;;;1.69;49.89
5651;BME280;40241;52.684;9.758;2023-04-06T05:27:50;101650.28;;;1.73;49.89
5651;BME280;40241;52.684;9.758;2023-04-06T05:30:16;101652.53;;;1.78;49.72
5651;BME280;40241;52.684;9.758;2023-04-06T05:32:41;101652.19;;;1.76;49.91
5651;BME280;40241;52.684;9.758;2023-04-06T05:35:08;101650.59;;;1.78;50.18
5651;BME280;40241;52.684;9.758;2023-04-06T05:37:34;101659.88;;;1.81;50.26
5651;BME280;40241;52.684;9.758;2023-04-06T05:39:59;101658.25;;;1.87;50.24
5651;BME280;40241;52.684;9.758;2023-04-06T05:42:25;101652.38;;;1.92;49.90
5651;BME280;40241;52.684;9.758;2023-04-06T05:44:52;101647.31;;;1.94;49.95
5651;BME280;40241;52.684;9.758;2023-04-06T05:47:17;101651.16;;;1.96;50.04
5651;BME280;40241;52.684;9.758;2023-04-06T05:49:43;101654.16;;;2.02;50.16
5651;BME280;40241;52.684;9.758;2023-04-06T05:52:08;101651.03;;;2.03;50.07
5651;BME280;40241;52.684;9.758;2023-04-06T05:54:35;101651.00;;;2.07;50.12
5651;BME280;40241;52.684;9.758;2023-04-06T05:57:04;101661.38;;;2.12;50.27
5651;BME280;40241;52.684;9.758;2023-04-06T05:59:30;101656.34;;;2.14;50.22
5651;BME280;40241;52.684;9.758;2023-04-06T06:01:56;101652.78;;;2.17;50.17
5651;BME280;40241;52.684;9.758;2023-04-06T06:04:21;101652.31;;;2.22;50.52
5651;BME280;40241;52.684;9.758;2023-04-06T06:06:47;101649.50;;;2.29;50.06
5651;BME280;40241;52.684;9.758;2023-04-06T06:09:12;101652.94;;;2.33;50.27
5651;BME280;40241;52.684;9.758;2023-04-06T06:11:38;101653.19;;;2.42;50.36
5651;BME280;40241;52.684;9.758;2023-04-06T06:14:03;101648.81;;;2.48;50.33
5651;BME280;40241;52.684;9.758;2023-04-06T06:16:29;101649.19;;;2.50;50.23
5651;BME280;40241;52.684;9.758;2023-04-06T06:18:54;101658.00;;;2.58;50.48
5651;BME280;40241;52.684;9.758;2023-04-06T06:21:20;101652.41;;;2.65;50.32
5651;BME280;40241;52.684;9.758;2023-04-06T06:23:45;101646.09;;;2.71;50.17
5651;BME280;40241;52.684;9.758;2023-04-06T06:26:13;101654.13;;;2.78;50.12
5651;BME280;40241;52.684;9.758;2023-04-06T06:28:38;101649.00;;;2.84;50.36
5651;BME280;40241;52.684;9.758;2023-04-06T06:31:04;101653.91;;;2.92;50.09
5651;BME280;40241;52.684;9.758;2023-04-06T06:33:29;101653.03;;;2.99;50.08
5651;BME280;40241;52.684;9.758;2023-04-06T06:35:54;101655.88;;;3.12;50.28
5651;BME280;40241;52.684;9.758;2023-04-06T06:38:20;101659.19;;;3.23;50.26
5651;BME280;40241;52.684;9.758;2023-04-06T06:40:46;101660.16;;;3.32;50.12
5651;BME280;40241;52.684;9.758;2023-04-06T06:43:11;101657.66;;;3.41;50.20
5651;BME280;40241;52.684;9.758;2023-04-06T06:45:37;101652.06;;;3.48;50.05
5651;BME280;40241;52.684;9.758;2023-04-06T06:48:02;101659.66;;;3.57;49.98
5651;BME280;40241;52.684;9.758;2023-04-06T06:50:27;101664.13;;;3.67;50.03
5651;BME280;40241;52.684;9.758;2023-04-06T06:52:53;101653.03;;;3.77;49.91
5651;BME280;40241;52.684;9.758;2023-04-06T06:55:18;101653.25;;;3.87;49.79
5651;BME280;40241;52.684;9.758;2023-04-06T06:57:46;101654.97;;;3.97;49.97
5651;BME280;40241;52.684;9.758;2023-04-06T07:00:13;101649.28;;;4.07;49.77
5651;BME280;40241;52.684;9.758;2023-04-06T07:02:39;101642.81;;;4.17;49.86
5651;BME280;40241;52.684;9.758;2023-04-06T07:05:05;101644.53;;;4.27;49.74
5651;BME280;40241;52.684;9.758;2023-04-06T07:07:34;101650.06;;;4.40;49.61
5651;BME280;40241;52.684;9.758;2023-04-06T07:10:00;101647.88;;;4.51;49.43
5651;BME280;40241;52.684;9.758;2023-04-06T07:12:26;101644.53;;;4.60;49.45
5651;BME280;40241;52.684;9.758;2023-04-06T07:14:51;101641.22;;;4.68;49.62
5651;BME280;40241;52.684;9.758;2023-04-06T07:17:17;101636.69;;;4.78;49.78
5651;BME280;40241;52.684;9.758;2023-04-06T07:19:43;101632.41;;;4.93;49.52
5651;BME280;40241;52.684;9.758;2023-04-06T07:22:08;101642.09;;;5.10;49.60
5651;BME280;40241;52.684;9.758;2023-04-06T07:24:34;101643.34;;;5.21;49.26
5651;BME280;40241;52.684;9.758;2023-04-06T07:26:59;101651.44;;;5.38;49.28
5651;BME280;40241;52.684;9.758;2023-04-06T07:29:28;101649.84;;;5.53;48.89
5651;BME280;40241;52.684;9.758;2023-04-06T07:31:54;101645.97;;;5.66;49.11
5651;BME280;40241;52.684;9.758;2023-04-06T07:34:20;101640.09;;;5.80;49.00
5651;BME280;40241;52.684;9.758;2023-04-06T07:36:45;101637.28;;;5.96;48.76
5651;BME280;40241;52.684;9.758;2023-04-06T07:39:10;101639.94;;;6.13;48.50
5651;BME280;40241;52.684;9.758;2023-04-06T07:41:36;101634.78;;;6.27;48.67
5651;BME280;40241;52.684;9.758;2023-04-06T07:44:02;101640.59;;;6.42;48.58
5651;BME280;40241;52.684;9.758;2023-04-06T07:46:28;101627.53;;;6.58;48.32
5651;BME280;40241;52.684;9.758;2023-04-06T07:48:53;101638.75;;;6.73;48.33
5651;BME280;40241;52.684;9.758;2023-04-06T07:51:19;101637.97;;;6.85;48.27
5651;BME280;40241;52.684;9.758;2023-04-06T07:53:44;101636.41;;;6.97;48.18
5651;BME280;40241;52.684;9.758;2023-04-06T07:56:10;101628.78;;;7.13;48.42
5651;BME280;40241;52.684;9.758;2023-04-06T07:58:37;101636.06;;;7.29;48.05
5651;BME280;40241;52.684;9.758;2023-04-06T08:01:02;101635.53;;;7.43;47.82
5651;BME280;40241;52.684;9.758;2023-04-06T08:03:28;101629.84;;;7.59;47.26
5651;BME280;40241;52.684;9.758;2023-04-06T08:05:53;101635.56;;;7.74;47.19
5651;BME280;40241;52.684;9.758;2023-04-06T08:08:19;101642.34;;;7.91;46.90
5651;BME280;40241;52.684;9.758;2023-04-06T08:10:46;101634.66;;;8.07;47.09
5651;BME280;40241;52.684;9.758;2023-04-06T08:13:12;101632.59;;;8.20;46.66
5651;BME280;40241;52.684;9.758;2023-04-06T08:15:37;101633.56;;;8.36;46.61
5651;BME280;40241;52.684;9.758;2023-04-06T08:18:02;101627.38;;;8.53;46.40
5651;BME280;40241;52.684;9.758;2023-04-06T08:20:28;101631.06;;;8.68;46.54
5651;BME280;40241;52.684;9.758;2023-04-06T08:22:53;101633.53;;;8.84;46.17
5651;BME280;40241;52.684;9.758;2023-04-06T08:25:19;101638.56;;;9.04;46.07
5651;BME280;40241;52.684;9.758;2023-04-06T08:27:44;101637.34;;;9.23;45.92
5651;BME280;40241;52.684;9.758;2023-04-06T08:30:10;101633.34;;;9.42;45.73
5651;BME280;40241;52.684;9.758;2023-04-06T08:32:35;101634.38;;;9.63;45.70
5651;BME280;40241;52.684;9.758;2023-04-06T08:35:01;101629.13;;;9.83;45.58
5651;BME280;40241;52.684;9.758;2023-04-06T08:37:26;101637.13;;;10.05;45.41
5651;BME280;40241;52.684;9.758;2023-04-06T08:39:52;101626.22;;;10.28;45.16
5651;BME280;40241;52.684;9.758;2023-04-06T08:42:21;101633.25;;;10.53;44.48
5651;BME280;40241;52.684;9.758;2023-04-06T08:44:48;101643.34;;;10.80;44.70
5651;BME280;40241;52.684;9.758;2023-04-06T08:47:16;101624.03;;;11.03;44.25
5651;BME280;40241;52.684;9.758;2023-04-06T08:49:42;101621.22;;;11.27;44.22
5651;BME280;40241;52.684;9.758;2023-04-06T08:52:10;101626.47;;;11.54;44.08
5651;BME280;40241;52.684;9.758;2023-04-06T08:54:37;101621.66;;;11.78;43.71
5651;BME280;40241;52.684;9.758;2023-04-06T08:57:03;101609.00;;;12.01;43.58
5651;BME280;40241;52.684;9.758;2023-04-06T08:59:29;101622.13;;;12.26;43.42
5651;BME280;40241;52.684;9.758;2023-04-06T09:01:55;101613.22;;;12.51;43.04
5651;BME280;40241;52.684;9.758;2023-04-06T09:04:21;101608.44;;;12.72;42.84
5651;BME280;40241;52.684;9.758;2023-04-06T09:06:46;101611.47;;;12.94;42.46
5651;BME280;40241;52.684;9.758;2023-04-06T09:09:12;101615.19;;;13.11;42.52
5651;BME280;40241;52.684;9.758;2023-04-06T09:11:48;101617.69;;;13.35;40.67
5651;BME280;40241;52.684;9.758;2023-04-06T09:14:15;101619.63;;;13.54;41.92
5651;BME280;40241;52.684;9.758;2023-04-06T09:16:43;101616.50;;;13.67;41.69
5651;BME280;40241;52.684;9.758;2023-04-06T09:19:10;101614.31;;;13.77;41.33
5651;BME280;40241;52.684;9.758;2023-04-06T09:21:36;101614.63;;;13.84;41.25
5651;BME280;40241;52.684;9.758;2023-04-06T09:24:03;101611.19;;;13.95;41.28
5651;BME280;40241;52.684;9.758;2023-04-06T09:26:29;101606.00;;;14.08;41.08
5651;BME280;40241;52.684;9.758;2023-04-06T09:28:57;101608.13;;;14.24;40.87
5651;BME280;40241;52.684;9.758;2023-04-06T09:31:24;101607.19;;;14.33;40.63
5651;BME280;40241;52.684;9.758;2023-04-06T09:33:50;101607.50;;;14.46;40.60
5651;BME280;40241;52.684;9.758;2023-04-06T09:36:17;101611.81;;;14.52;40.35
5651;BME280;40241;52.684;9.758;2023-04-06T09:41:32;101606.84;;;14.73;38.37
5651;BME280;40241;52.684;9.758;2023-04-06T09:44:12;101608.91;;;14.78;36.67
5651;BME280;40241;52.684;9.758;2023-04-06T09:46:42;101607.41;;;14.82;38.81
5651;BME280;40241;52.684;9.758;2023-04-06T09:49:09;101597.09;;;14.88;39.42
5651;BME280;40241;52.684;9.758;2023-04-06T09:51:45;101610.94;;;14.88;38.92
5651;BME280;40241;52.684;9.758;2023-04-06T09:54:21;101598.38;;;14.93;39.21
5651;BME280;40241;52.684;9.758;2023-04-06T09:57:04;101599.59;;;14.86;37.73
5651;BME280;40241;52.684;9.758;2023-04-06T09:59:54;101586.50;;;14.87;37.20
5651;BME280;40241;52.684;9.758;2023-04-06T10:05:16;101582.75;;;14.95;37.49
5651;BME280;40241;52.684;9.758;2023-04-06T10:07:44;101579.22;;;15.00;39.24
5651;BME280;40241;52.684;9.758;2023-04-06T10:10:11;101579.50;;;15.14;39.16
5651;BME280;40241;52.684;9.758;2023-04-06T10:12:38;101581.53;;;15.19;38.94
5651;BME280;40241;52.684;9.758;2023-04-06T10:15:05;101579.53;;;15.19;38.81
5651;BME280;40241;52.684;9.758;2023-04-06T10:17:31;101575.75;;;15.17;38.84
5651;BME280;40241;52.684;9.758;2023-04-06T10:20:03;101576.25;;;15.21;37.68
5651;BME280;40241;52.684;9.758;2023-04-06T10:25:26;101581.28;;;15.33;37.07
5651;BME280;40241;52.684;9.758;2023-04-06T10:27:59;101576.03;;;15.41;37.66
5651;BME280;40241;52.684;9.758;2023-04-06T10:30:25;101570.72;;;15.43;38.22
5651;BME280;40241;52.684;9.758;2023-04-06T10:32:51;101572.75;;;15.42;38.29
5651;BME280;40241;52.684;9.758;2023-04-06T10:35:16;101567.50;;;15.50;38.43
5651;BME280;40241;52.684;9.758;2023-04-06T10:37:51;101562.47;;;15.59;35.82
5651;BME280;40241;52.684;9.758;2023-04-06T10:40:19;101564.44;;;15.64;37.91
5651;BME280;40241;52.684;9.758;2023-04-06T10:42:44;101566.72;;;15.77;37.84
5651;BME280;40241;52.684;9.758;2023-04-06T10:45:19;101558.38;;;15.88;36.33
5651;BME280;40241;52.684;9.758;2023-04-06T10:47:45;101567.69;;;16.02;37.31
5651;BME280;40241;52.684;9.758;2023-04-06T10:50:14;101568.41;;;16.08;36.92
5651;BME280;40241;52.684;9.758;2023-04-06T10:52:41;101558.56;;;16.12;36.96
5651;BME280;40241;52.684;9.758;2023-04-06T10:55:08;101561.06;;;16.21;36.83
5651;BME280;40241;52.684;9.758;2023-04-06T10:57:35;101564.34;;;16.31;36.49
5651;BME280;40241;52.684;9.758;2023-04-06T11:00:04;101557.47;;;16.48;36.53
5651;BME280;40241;52.684;9.758;2023-04-06T11:02:30;101568.28;;;16.63;36.43
5651;BME280;40241;52.684;9.758;2023-04-06T11:04:58;101557.38;;;16.71;36.39
5651;BME280;40241;52.684;9.758;2023-04-06T11:07:24;101555.03;;;16.86;36.31
5651;BME280;40241;52.684;9.758;2023-04-06T11:09:50;101546.88;;;16.99;36.17
5651;BME280;40241;52.684;9.758;2023-04-06T11:12:27;101553.31;;;17.12;34.56
5651;BME280;40241;52.684;9.758;2023-04-06T11:14:57;101554.94;;;17.32;35.70
5651;BME280;40241;52.684;9.758;2023-04-06T11:17:30;101553.59;;;17.44;35.54
5651;BME280;40241;52.684;9.758;2023-04-06T11:19:56;101549.72;;;17.58;35.33
5651;BME280;40241;52.684;9.758;2023-04-06T11:22:23;101551.59;;;17.74;35.32
5651;BME280;40241;52.684;9.758;2023-04-06T11:24:48;101547.72;;;17.83;35.09
5651;BME280;40241;52.684;9.758;2023-04-06T11:27:15;101547.16;;;17.90;34.88
5651;BME280;40241;52.684;9.758;2023-04-06T11:29:41;101543.72;;;18.03;34.79
5651;BME280;40241;52.684;9.758;2023-04-06T11:32:07;101532.91;;;18.18;34.70
5651;BME280;40241;52.684;9.758;2023-04-06T11:34:37;101542.59;;;18.35;34.26
5651;BME280;40241;52.684;9.758;2023-04-06T11:37:12;101540.09;;;18.56;33.06
5651;BME280;40241;52.684;9.758;2023-04-06T11:39:40;101547.00;;;18.68;nan
5651;BME280;40241;52.684;9.758;2023-04-06T11:42:06;101538.44;;;18.85;33.97
5651;BME280;40241;52.684;9.758;2023-04-06T11:44:44;101527.72;;;18.89;32.18
5651;BME280;40241;52.684;9.758;2023-04-06T11:47:11;101526.25;;;19.01;33.72
5651;BME280;40241;52.684;9.758;2023-04-06T11:49:39;101543.16;;;19.08;33.45
5651;BME280;40241;52.684;9.758;2023-04-06T11:52:15;101522.75;;;19.13;31.63
5651;BME280;40241;52.684;9.758;2023-04-06T11:54:41;101529.84;;;19.14;32.86
5651;BME280;40241;52.684;9.758;2023-04-06T11:57:08;101519.78;;;19.24;32.95
5651;BME280;40241;52.684;9.758;2023-04-06T11:59:34;101517.97;;;19.46;32.97
5651;BME280;40241;52.684;9.758;2023-04-06T12:02:01;101520.97;;;19.48;32.30
5651;BME280;40241;52.684;9.758;2023-04-06T12:04:27;101517.53;;;19.41;32.76
5651;BME280;40241;52.684;9.758;2023-04-06T12:06:52;101516.16;;;19.48;32.77
5651;BME280;40241;52.684;9.758;2023-04-06T12:09:18;101502.63;;;19.52;32.46
5651;BME280;40241;52.684;9.758;2023-04-06T12:11:43;101492.47;;;19.68;32.43
5651;BME280;40241;52.684;9.758;2023-04-06T12:14:09;101505.25;;;19.89;32.23
5651;BME280;40241;52.684;9.758;2023-04-06T12:16:35;101500.94;;;20.01;31.97
5651;BME280;40241;52.684;9.758;2023-04-06T12:19:00;101498.47;;;20.24;31.94
5651;BME280;40241;52.684;9.758;2023-04-06T12:21:32;101493.41;;;20.36;30.95
5651;BME280;40241;52.684;9.758;2023-04-06T12:23:58;101496.84;;;20.42;31.91
5651;BME280;40241;52.684;9.758;2023-04-06T12:26:24;101498.53;;;20.45;31.46
5651;BME280;40241;52.684;9.758;2023-04-06T12:28:50;101500.41;;;20.29;30.85
5651;BME280;40241;52.684;9.758;2023-04-06T12:31:19;101493.50;;;20.17;31.21
5651;BME280;40241;52.684;9.758;2023-04-06T12:33:49;101498.91;;;20.02;28.91
5651;BME280;40241;52.684;9.758;2023-04-06T12:36:15;101505.13;;;20.08;31.49
5651;BME280;40241;52.684;9.758;2023-04-06T12:38:47;101503.94;;;20.16;29.15
5651;BME280;40241;52.684;9.758;2023-04-06T12:41:13;101486.53;;;19.97;30.96
5651;BME280;40241;52.684;9.758;2023-04-06T12:43:42;101491.91;;;19.95;29.54
5651;BME280;40241;52.684;9.758;2023-04-06T12:46:07;101487.72;;;20.02;30.75
5651;BME280;40241;52.684;9.758;2023-04-06T12:48:33;101493.94;;;20.08;30.23
5651;BME280;40241;52.684;9.758;2023-04-06T12:51:04;101479.13;;;20.13;28.93
5651;BME280;40241;52.684;9.758;2023-04-06T12:53:29;101479.22;;;20.07;29.90
5651;BME280;40241;52.684;9.758;2023-04-06T12:55:56;101479.53;;;20.17;30.43
5651;BME280;40241;52.684;9.758;2023-04-06T12:58:22;101476.00;;;20.30;30.34
5651;BME280;40241;52.684;9.758;2023-04-06T13:00:49;101476.00;;;20.30;30.24
5651;BME280;40241;52.684;9.758;2023-04-06T13:03:15;101470.53;;;20.24;29.99
5651;BME280;40241;52.684;9.758;2023-04-06T13:05:44;101467.81;;;20.18;28.80
5651;BME280;40241;52.684;9.758;2023-04-06T13:08:11;101473.97;;;20.17;30.03
5651;BME280;40241;52.684;9.758;2023-04-06T13:10:36;101473.75;;;20.28;29.93